sensor_id;sensor_type;location;lat;lon;timestamp;P1;durP1;ratioP1;P2;durP2;ratioP2
65996;SDS011;52765;52.258;21.052;2024-03-08T00:00:06;60.45;;;26.05;;
65996;SDS011;52765;52.258;21.052;2024-03-08T00:04:12;60.72;;;24.23;;
65996;SDS011;52765;52.258;21.052;2024-03-08T00:08:12;65.60;;;24.15;;
65996;SDS011;52765;52.258;21.052;2024-03-08T00:12:13;66.18;;;24.23;;
65996;SDS011;52765;52.258;21.052;2024-03-08T00:16:13;61.13;;;23.90;;
65996;SDS011;52765;52.258;21.052;2024-03-08T00:20:14;49.95;;;22.25;;
65996;SDS011;52765;52.258;21.052;2024-03-08T00:24:14;60.10;;;22.55;;
65996;SDS011;52765;52.258;21.052;2024-03-08T00:28:15;53.90;;;21.63;;
65996;SDS011;52765;52.258;21.052;2024-03-08T00:32:17;61.95;;;23.05;;
65996;SDS011;52765;52.258;21.052;2024-03-08T00:36:17;56.67;;;22.15;;
65996;SDS011;52765;52.258;21.052;2024-03-08T00:40:19;60.40;;;23.10;;
65996;SDS011;52765;52.258;21.052;2024-03-08T00:44:19;61.80;;;22.27;;
65996;SDS011;52765;52.258;21.052;2024-03-08T00:48:19;60.53;;;23.25;;
65996;SDS011;52765;52.258;21.052;2024-03-08T00:52:20;52.03;;;21.02;;
65996;SDS011;52765;52.258;21.052;2024-03-08T00:56:21;58.85;;;22.00;;
65996;SDS011;52765;52.258;21.052;2024-03-08T01:00:22;53.80;;;22.33;;
65996;SDS011;52765;52.258;21.052;2024-03-08T01:04:24;59.65;;;23.80;;
65996;SDS011;52765;52.258;21.052;2024-03-08T01:08:25;64.50;;;22.58;;
65996;SDS011;52765;52.258;21.052;2024-03-08T01:12:26;55.60;;;22.90;;
65996;SDS011;52765;52.258;21.052;2024-03-08T01:16:26;55.20;;;22.48;;
65996;SDS011;52765;52.258;21.052;2024-03-08T01:20:27;56.50;;;23.40;;
65996;SDS011;52765;52.258;21.052;2024-03-08T01:24:28;62.85;;;24.30;;
65996;SDS011;52765;52.258;21.052;2024-03-08T01:28:28;51.83;;;21.13;;
65996;SDS011;52765;52.258;21.052;2024-03-08T01:32:30;69.35;;;25.00;;
65996;SDS011;52765;52.258;21.052;2024-03-08T01:36:30;65.13;;;24.13;;
65996;SDS011;52765;52.258;21.052;2024-03-08T01:40:31;59.63;;;23.85;;
65996;SDS011;52765;52.258;21.052;2024-03-08T01:44:31;58.10;;;23.00;;
65996;SDS011;52765;52.258;21.052;2024-03-08T01:48:31;61.80;;;26.27;;
65996;SDS011;52765;52.258;21.052;2024-03-08T01:52:32;74.18;;;28.13;;
65996;SDS011;52765;52.258;21.052;2024-03-08T01:56:34;68.55;;;27.38;;
65996;SDS011;52765;52.258;21.052;2024-03-08T02:00:35;76.32;;;28.73;;
65996;SDS011;52765;52.258;21.052;2024-03-08T02:04:36;73.60;;;25.95;;
65996;SDS011;52765;52.258;21.052;2024-03-08T02:08:38;62.97;;;25.42;;
65996;SDS011;52765;52.258;21.052;2024-03-08T02:12:38;71.63;;;26.92;;
65996;SDS011;52765;52.258;21.052;2024-03-08T02:16:39;80.15;;;27.33;;
65996;SDS011;52765;52.258;21.052;2024-03-08T02:20:39;69.45;;;26.35;;
65996;SDS011;52765;52.258;21.052;2024-03-08T02:24:40;68.97;;;29.52;;
65996;SDS011;52765;52.258;21.052;2024-03-08T02:28:41;83.00;;;28.98;;
65996;SDS011;52765;52.258;21.052;2024-03-08T02:32:43;77.22;;;29.10;;
65996;SDS011;52765;52.258;21.052;2024-03-08T02:36:44;83.13;;;30.10;;
65996;SDS011;52765;52.258;21.052;2024-03-08T02:40:47;87.68;;;29.73;;
65996;SDS011;52765;52.258;21.052;2024-03-08T02:44:51;73.15;;;28.77;;
65996;SDS011;52765;52.258;21.052;2024-03-08T02:48:51;75.30;;;26.38;;
65996;SDS011;52765;52.258;21.052;2024-03-08T02:52:52;77.55;;;27.40;;
65996;SDS011;52765;52.258;21.052;2024-03-08T02:56:52;66.55;;;26.42;;
65996;SDS011;52765;52.258;21.052;2024-03-08T03:00:53;73.78;;;28.23;;
65996;SDS011;52765;52.258;21.052;2024-03-08T03:04:53;75.00;;;27.60;;
65996;SDS011;52765;52.258;21.052;2024-03-08T03:08:55;83.82;;;29.80;;
65996;SDS011;52765;52.258;21.052;2024-03-08T03:12:57;75.38;;;27.90;;
65996;SDS011;52765;52.258;21.052;2024-03-08T03:16:58;72.03;;;30.33;;
65996;SDS011;52765;52.258;21.052;2024-03-08T03:20:58;70.75;;;29.33;;
65996;SDS011;52765;52.258;21.052;2024-03-08T03:24:59;84.32;;;33.17;;
65996;SDS011;52765;52.258;21.052;2024-03-08T03:29:01;85.00;;;33.22;;
65996;SDS011;52765;52.258;21.052;2024-03-08T03:33:03;87.85;;;33.90;;
65996;SDS011;52765;52.258;21.052;2024-03-08T03:37:10;94.05;;;35.70;;
65996;SDS011;52765;52.258;21.052;2024-03-08T03:41:12;90.20;;;36.00;;
65996;SDS011;52765;52.258;21.052;2024-03-08T03:45:14;100.47;;;38.83;;
65996;SDS011;52765;52.258;21.052;2024-03-08T03:49:19;96.32;;;37.47;;
65996;SDS011;52765;52.258;21.052;2024-03-08T03:53:20;103.30;;;39.95;;
65996;SDS011;52765;52.258;21.052;2024-03-08T03:57:20;96.97;;;36.42;;
65996;SDS011;52765;52.258;21.052;2024-03-08T04:01:23;93.53;;;35.95;;
65996;SDS011;52765;52.258;21.052;2024-03-08T04:05:24;94.88;;;36.70;;
65996;SDS011;52765;52.258;21.052;2024-03-08T04:09:24;102.57;;;40.72;;
65996;SDS011;52765;52.258;21.052;2024-03-08T04:13:25;88.45;;;36.40;;
65996;SDS011;52765;52.258;21.052;2024-03-08T04:17:28;102.20;;;38.92;;
65996;SDS011;52765;52.258;21.052;2024-03-08T04:21:29;113.15;;;39.60;;
65996;SDS011;52765;52.258;21.052;2024-03-08T04:25:31;117.78;;;41.17;;
65996;SDS011;52765;52.258;21.052;2024-03-08T04:29:32;101.05;;;37.03;;
65996;SDS011;52765;52.258;21.052;2024-03-08T04:33:34;105.40;;;39.08;;
65996;SDS011;52765;52.258;21.052;2024-03-08T04:37:38;105.80;;;40.30;;
65996;SDS011;52765;52.258;21.052;2024-03-08T04:41:39;97.60;;;39.35;;
65996;SDS011;52765;52.258;21.052;2024-03-08T04:45:40;118.35;;;41.80;;
65996;SDS011;52765;52.258;21.052;2024-03-08T04:49:43;98.65;;;36.40;;
65996;SDS011;52765;52.258;21.052;2024-03-08T04:53:44;111.85;;;39.83;;
65996;SDS011;52765;52.258;21.052;2024-03-08T04:57:45;102.47;;;37.53;;
65996;SDS011;52765;52.258;21.052;2024-03-08T05:01:46;109.47;;;38.92;;
65996;SDS011;52765;52.258;21.052;2024-03-08T05:05:47;120.65;;;41.60;;
65996;SDS011;52765;52.258;21.052;2024-03-08T05:09:47;106.32;;;38.90;;
65996;SDS011;52765;52.258;21.052;2024-03-08T05:13:51;116.43;;;39.80;;
65996;SDS011;52765;52.258;21.052;2024-03-08T05:17:52;105.53;;;39.20;;
65996;SDS011;52765;52.258;21.052;2024-03-08T05:21:52;119.63;;;41.38;;
65996;SDS011;52765;52.258;21.052;2024-03-08T05:25:52;115.63;;;40.80;;
65996;SDS011;52765;52.258;21.052;2024-03-08T05:29:53;120.60;;;42.00;;
65996;SDS011;52765;52.258;21.052;2024-03-08T05:33:53;115.03;;;41.00;;
65996;SDS011;52765;52.258;21.052;2024-03-08T05:38:04;120.80;;;42.92;;
65996;SDS011;52765;52.258;21.052;2024-03-08T05:42:07;124.40;;;44.58;;
65996;SDS011;52765;52.258;21.052;2024-03-08T05:46:11;123.93;;;46.72;;
65996;SDS011;52765;52.258;21.052;2024-03-08T05:50:15;131.38;;;46.78;;
65996;SDS011;52765;52.258;21.052;2024-03-08T05:54:16;114.85;;;44.97;;
65996;SDS011;52765;52.258;21.052;2024-03-08T05:58:17;117.75;;;45.83;;
65996;SDS011;52765;52.258;21.052;2024-03-08T06:02:17;117.47;;;47.10;;
65996;SDS011;52765;52.258;21.052;2024-03-08T06:06:19;128.43;;;45.40;;
65996;SDS011;52765;52.258;21.052;2024-03-08T06:10:21;119.80;;;47.45;;
65996;SDS011;52765;52.258;21.052;2024-03-08T06:14:22;107.40;;;40.85;;
65996;SDS011;52765;52.258;21.052;2024-03-08T06:18:23;112.57;;;40.80;;
65996;SDS011;52765;52.258;21.052;2024-03-08T06:22:23;115.97;;;40.65;;
65996;SDS011;52765;52.258;21.052;2024-03-08T06:26:25;99.00;;;38.50;;
65996;SDS011;52765;52.258;21.052;2024-03-08T06:30:28;109.28;;;40.28;;
65996;SDS011;52765;52.258;21.052;2024-03-08T06:34:32;100.57;;;38.83;;
65996;SDS011;52765;52.258;21.052;2024-03-08T06:38:34;87.47;;;36.10;;
65996;SDS011;52765;52.258;21.052;2024-03-08T06:42:35;102.53;;;39.90;;
65996;SDS011;52765;52.258;21.052;2024-03-08T06:46:35;104.95;;;41.08;;
65996;SDS011;52765;52.258;21.052;2024-03-08T06:50:36;89.28;;;37.13;;
65996;SDS011;52765;52.258;21.052;2024-03-08T06:54:37;114.90;;;40.75;;
65996;SDS011;52765;52.258;21.052;2024-03-08T06:58:37;98.07;;;36.92;;
65996;SDS011;52765;52.258;21.052;2024-03-08T07:02:38;91.53;;;36.60;;
65996;SDS011;52765;52.258;21.052;2024-03-08T07:06:39;92.50;;;36.80;;
65996;SDS011;52765;52.258;21.052;2024-03-08T07:10:40;85.45;;;35.30;;
65996;SDS011;52765;52.258;21.052;2024-03-08T07:14:45;85.93;;;34.03;;
65996;SDS011;52765;52.258;21.052;2024-03-08T07:18:45;91.40;;;33.35;;
65996;SDS011;52765;52.258;21.052;2024-03-08T07:22:46;80.63;;;32.78;;
65996;SDS011;52765;52.258;21.052;2024-03-08T07:26:53;75.65;;;27.98;;
65996;SDS011;52765;52.258;21.052;2024-03-08T07:30:55;55.80;;;21.05;;
65996;SDS011;52765;52.258;21.052;2024-03-08T07:35:12;54.40;;;19.15;;
65996;SDS011;52765;52.258;21.052;2024-03-08T07:39:13;50.10;;;18.38;;
65996;SDS011;52765;52.258;21.052;2024-03-08T07:43:13;52.83;;;19.30;;
65996;SDS011;52765;52.258;21.052;2024-03-08T07:47:14;48.63;;;18.38;;
65996;SDS011;52765;52.258;21.052;2024-03-08T07:51:17;46.63;;;18.35;;
65996;SDS011;52765;52.258;21.052;2024-03-08T07:55:18;45.97;;;19.63;;
65996;SDS011;52765;52.258;21.052;2024-03-08T07:59:19;45.40;;;19.42;;
65996;SDS011;52765;52.258;21.052;2024-03-08T08:03:21;46.70;;;18.70;;
65996;SDS011;52765;52.258;21.052;2024-03-08T08:07:21;47.92;;;18.55;;
65996;SDS011;52765;52.258;21.052;2024-03-08T08:11:25;39.20;;;16.75;;
65996;SDS011;52765;52.258;21.052;2024-03-08T08:15:27;42.92;;;17.65;;
65996;SDS011;52765;52.258;21.052;2024-03-08T08:19:28;37.13;;;15.00;;
65996;SDS011;52765;52.258;21.052;2024-03-08T08:23:29;39.65;;;16.20;;
65996;SDS011;52765;52.258;21.052;2024-03-08T08:27:30;44.65;;;17.33;;
65996;SDS011;52765;52.258;21.052;2024-03-08T08:31:31;36.90;;;17.10;;
65996;SDS011;52765;52.258;21.052;2024-03-08T08:35:32;37.65;;;16.33;;
65996;SDS011;52765;52.258;21.052;2024-03-08T08:39:33;36.45;;;15.73;;
65996;SDS011;52765;52.258;21.052;2024-03-08T08:43:34;33.33;;;13.70;;
65996;SDS011;52765;52.258;21.052;2024-03-08T08:47:35;28.45;;;12.07;;
65996;SDS011;52765;52.258;21.052;2024-03-08T08:51:36;26.05;;;11.38;;
65996;SDS011;52765;52.258;21.052;2024-03-08T08:55:37;23.67;;;9.68;;
65996;SDS011;52765;52.258;21.052;2024-03-08T08:59:40;28.85;;;11.30;;
65996;SDS011;52765;52.258;21.052;2024-03-08T09:03:40;23.08;;;10.50;;
65996;SDS011;52765;52.258;21.052;2024-03-08T09:07:41;27.25;;;11.50;;
65996;SDS011;52765;52.258;21.052;2024-03-08T09:11:42;29.38;;;11.82;;
65996;SDS011;52765;52.258;21.052;2024-03-08T09:15:45;23.30;;;10.80;;
65996;SDS011;52765;52.258;21.052;2024-03-08T09:19:48;26.90;;;10.55;;
65996;SDS011;52765;52.258;21.052;2024-03-08T09:23:49;22.60;;;10.20;;
65996;SDS011;52765;52.258;21.052;2024-03-08T09:27:50;21.25;;;8.90;;
65996;SDS011;52765;52.258;21.052;2024-03-08T09:31:50;63.15;;;12.65;;
65996;SDS011;52765;52.258;21.052;2024-03-08T09:35:51;25.33;;;10.98;;
65996;SDS011;52765;52.258;21.052;2024-03-08T09:39:53;20.92;;;8.90;;
65996;SDS011;52765;52.258;21.052;2024-03-08T09:43:53;22.25;;;9.80;;
65996;SDS011;52765;52.258;21.052;2024-03-08T09:47:59;26.77;;;10.65;;
65996;SDS011;52765;52.258;21.052;2024-03-08T09:52:06;20.45;;;9.82;;
65996;SDS011;52765;52.258;21.052;2024-03-08T09:56:24;24.55;;;11.90;;
65996;SDS011;52765;52.258;21.052;2024-03-08T10:00:27;22.92;;;10.45;;
65996;SDS011;52765;52.258;21.052;2024-03-08T10:04:28;21.85;;;10.23;;
65996;SDS011;52765;52.258;21.052;2024-03-08T10:08:30;23.75;;;11.32;;
65996;SDS011;52765;52.258;21.052;2024-03-08T10:12:31;21.27;;;10.07;;
65996;SDS011;52765;52.258;21.052;2024-03-08T10:16:31;21.45;;;10.18;;
65996;SDS011;52765;52.258;21.052;2024-03-08T10:20:32;22.92;;;10.30;;
65996;SDS011;52765;52.258;21.052;2024-03-08T10:24:33;21.42;;;9.63;;
65996;SDS011;52765;52.258;21.052;2024-03-08T10:28:33;25.63;;;11.15;;
65996;SDS011;52765;52.258;21.052;2024-03-08T10:32:34;24.25;;;10.30;;
65996;SDS011;52765;52.258;21.052;2024-03-08T10:36:35;23.42;;;10.45;;
65996;SDS011;52765;52.258;21.052;2024-03-08T10:40:38;23.55;;;9.48;;
65996;SDS011;52765;52.258;21.052;2024-03-08T10:44:47;18.88;;;8.98;;
65996;SDS011;52765;52.258;21.052;2024-03-08T10:48:55;19.00;;;8.88;;
65996;SDS011;52765;52.258;21.052;2024-03-08T10:52:58;27.35;;;10.77;;
65996;SDS011;52765;52.258;21.052;2024-03-08T10:57:02;21.95;;;10.35;;
65996;SDS011;52765;52.258;21.052;2024-03-08T11:01:05;24.33;;;10.30;;
65996;SDS011;52765;52.258;21.052;2024-03-08T11:05:09;22.13;;;11.25;;
65996;SDS011;52765;52.258;21.052;2024-03-08T11:17:48;21.05;;;9.90;;
65996;SDS011;52765;52.258;21.052;2024-03-08T11:22:05;19.02;;;9.90;;
65996;SDS011;52765;52.258;21.052;2024-03-08T11:26:20;29.27;;;10.57;;
65996;SDS011;52765;52.258;21.052;2024-03-08T11:30:23;22.90;;;8.98;;
65996;SDS011;52765;52.258;21.052;2024-03-08T11:34:26;25.40;;;10.30;;
65996;SDS011;52765;52.258;21.052;2024-03-08T11:38:27;19.88;;;10.13;;
65996;SDS011;52765;52.258;21.052;2024-03-08T11:42:28;21.52;;;8.85;;
65996;SDS011;52765;52.258;21.052;2024-03-08T11:46:28;21.65;;;9.90;;
65996;SDS011;52765;52.258;21.052;2024-03-08T11:50:29;23.60;;;9.65;;
65996;SDS011;52765;52.258;21.052;2024-03-08T11:54:30;18.77;;;9.82;;
65996;SDS011;52765;52.258;21.052;2024-03-08T11:58:31;19.30;;;8.90;;
65996;SDS011;52765;52.258;21.052;2024-03-08T12:02:32;21.25;;;8.82;;
65996;SDS011;52765;52.258;21.052;2024-03-08T12:06:38;19.05;;;9.70;;
65996;SDS011;52765;52.258;21.052;2024-03-08T12:10:40;23.42;;;11.07;;
65996;SDS011;52765;52.258;21.052;2024-03-08T12:14:43;21.48;;;10.32;;
65996;SDS011;52765;52.258;21.052;2024-03-08T12:18:44;17.98;;;8.63;;
65996;SDS011;52765;52.258;21.052;2024-03-08T12:22:45;19.35;;;8.68;;
65996;SDS011;52765;52.258;21.052;2024-03-08T12:26:46;18.00;;;9.20;;
65996;SDS011;52765;52.258;21.052;2024-03-08T12:30:51;19.92;;;9.00;;
65996;SDS011;52765;52.258;21.052;2024-03-08T12:34:54;19.90;;;8.77;;
65996;SDS011;52765;52.258;21.052;2024-03-08T12:38:57;22.08;;;8.82;;
65996;SDS011;52765;52.258;21.052;2024-03-08T12:42:59;18.83;;;9.52;;
65996;SDS011;52765;52.258;21.052;2024-03-08T12:47:03;21.88;;;8.43;;
65996;SDS011;52765;52.258;21.052;2024-03-08T12:51:03;16.33;;;8.13;;
65996;SDS011;52765;52.258;21.052;2024-03-08T12:55:05;19.05;;;9.32;;
65996;SDS011;52765;52.258;21.052;2024-03-08T12:59:07;17.00;;;8.20;;
65996;SDS011;52765;52.258;21.052;2024-03-08T13:03:08;24.42;;;8.95;;
65996;SDS011;52765;52.258;21.052;2024-03-08T13:07:10;30.58;;;8.90;;
65996;SDS011;52765;52.258;21.052;2024-03-08T13:11:11;20.77;;;8.77;;
65996;SDS011;52765;52.258;21.052;2024-03-08T13:15:14;16.38;;;8.85;;
65996;SDS011;52765;52.258;21.052;2024-03-08T13:19:20;20.33;;;8.98;;
65996;SDS011;52765;52.258;21.052;2024-03-08T13:23:21;20.20;;;8.77;;
65996;SDS011;52765;52.258;21.052;2024-03-08T13:27:22;24.17;;;8.63;;
65996;SDS011;52765;52.258;21.052;2024-03-08T13:31:24;15.85;;;8.25;;
65996;SDS011;52765;52.258;21.052;2024-03-08T13:35:25;17.75;;;7.97;;
65996;SDS011;52765;52.258;21.052;2024-03-08T13:39:27;18.27;;;8.23;;
65996;SDS011;52765;52.258;21.052;2024-03-08T13:43:29;18.40;;;7.75;;
65996;SDS011;52765;52.258;21.052;2024-03-08T13:47:32;18.50;;;8.38;;
65996;SDS011;52765;52.258;21.052;2024-03-08T13:51:34;22.70;;;9.02;;
65996;SDS011;52765;52.258;21.052;2024-03-08T13:55:34;15.85;;;7.60;;
65996;SDS011;52765;52.258;21.052;2024-03-08T13:59:35;15.07;;;8.05;;
65996;SDS011;52765;52.258;21.052;2024-03-08T14:03:35;19.15;;;8.80;;
65996;SDS011;52765;52.258;21.052;2024-03-08T14:07:36;18.13;;;8.65;;
65996;SDS011;52765;52.258;21.052;2024-03-08T14:11:36;79.07;;;40.08;;
65996;SDS011;52765;52.258;21.052;2024-03-08T14:15:38;29.55;;;10.38;;
65996;SDS011;52765;52.258;21.052;2024-03-08T14:19:42;21.10;;;8.07;;
65996;SDS011;52765;52.258;21.052;2024-03-08T14:23:43;17.45;;;7.53;;
65996;SDS011;52765;52.258;21.052;2024-03-08T14:27:44;31.38;;;9.13;;
65996;SDS011;52765;52.258;21.052;2024-03-08T14:31:45;25.65;;;8.68;;
65996;SDS011;52765;52.258;21.052;2024-03-08T14:35:47;13.23;;;7.28;;
65996;SDS011;52765;52.258;21.052;2024-03-08T14:39:49;17.98;;;8.18;;
65996;SDS011;52765;52.258;21.052;2024-03-08T14:43:54;16.90;;;7.22;;
65996;SDS011;52765;52.258;21.052;2024-03-08T14:47:57;22.15;;;9.13;;
65996;SDS011;52765;52.258;21.052;2024-03-08T14:51:57;21.88;;;8.27;;
65996;SDS011;52765;52.258;21.052;2024-03-08T14:56:01;17.92;;;7.40;;
65996;SDS011;52765;52.258;21.052;2024-03-08T15:00:05;25.73;;;9.02;;
65996;SDS011;52765;52.258;21.052;2024-03-08T15:04:07;21.50;;;8.40;;
65996;SDS011;52765;52.258;21.052;2024-03-08T15:08:10;17.33;;;7.68;;
65996;SDS011;52765;52.258;21.052;2024-03-08T15:12:10;14.45;;;7.85;;
65996;SDS011;52765;52.258;21.052;2024-03-08T15:16:11;14.90;;;7.72;;
65996;SDS011;52765;52.258;21.052;2024-03-08T15:20:16;21.40;;;8.25;;
65996;SDS011;52765;52.258;21.052;2024-03-08T15:24:18;21.83;;;7.57;;
65996;SDS011;52765;52.258;21.052;2024-03-08T15:28:22;24.08;;;8.52;;
65996;SDS011;52765;52.258;21.052;2024-03-08T15:32:27;16.23;;;8.18;;
65996;SDS011;52765;52.258;21.052;2024-03-08T15:36:29;19.10;;;8.73;;
65996;SDS011;52765;52.258;21.052;2024-03-08T15:40:33;17.70;;;8.07;;
65996;SDS011;52765;52.258;21.052;2024-03-08T15:44:35;20.98;;;8.18;;
65996;SDS011;52765;52.258;21.052;2024-03-08T15:48:35;24.88;;;7.78;;
65996;SDS011;52765;52.258;21.052;2024-03-08T15:52:37;28.25;;;10.80;;
65996;SDS011;52765;52.258;21.052;2024-03-08T15:56:40;18.25;;;9.07;;
65996;SDS011;52765;52.258;21.052;2024-03-08T16:00:40;26.85;;;8.90;;
65996;SDS011;52765;52.258;21.052;2024-03-08T16:04:52;21.23;;;7.97;;
65996;SDS011;52765;52.258;21.052;2024-03-08T16:08:53;28.38;;;9.38;;
65996;SDS011;52765;52.258;21.052;2024-03-08T16:12:55;22.85;;;8.15;;
65996;SDS011;52765;52.258;21.052;2024-03-08T16:16:56;21.80;;;9.30;;
65996;SDS011;52765;52.258;21.052;2024-03-08T16:20:56;17.13;;;7.63;;
65996;SDS011;52765;52.258;21.052;2024-03-08T16:24:57;22.35;;;9.57;;
65996;SDS011;52765;52.258;21.052;2024-03-08T16:28:59;24.13;;;10.23;;
65996;SDS011;52765;52.258;21.052;2024-03-08T16:32:59;22.35;;;9.85;;
65996;SDS011;52765;52.258;21.052;2024-03-08T16:37:00;19.70;;;9.43;;
65996;SDS011;52765;52.258;21.052;2024-03-08T16:41:02;23.55;;;9.98;;
65996;SDS011;52765;52.258;21.052;2024-03-08T16:45:07;22.83;;;8.75;;
65996;SDS011;52765;52.258;21.052;2024-03-08T16:49:10;26.88;;;9.65;;
65996;SDS011;52765;52.258;21.052;2024-03-08T16:53:10;41.00;;;13.70;;
65996;SDS011;52765;52.258;21.052;2024-03-08T16:57:14;29.50;;;9.75;;
65996;SDS011;52765;52.258;21.052;2024-03-08T17:01:16;25.58;;;9.48;;
65996;SDS011;52765;52.258;21.052;2024-03-08T17:05:17;23.17;;;10.10;;
65996;SDS011;52765;52.258;21.052;2024-03-08T17:09:18;26.83;;;10.65;;
65996;SDS011;52765;52.258;21.052;2024-03-08T17:13:21;28.40;;;11.00;;
65996;SDS011;52765;52.258;21.052;2024-03-08T17:17:22;30.90;;;11.55;;
65996;SDS011;52765;52.258;21.052;2024-03-08T17:21:23;30.02;;;11.23;;
65996;SDS011;52765;52.258;21.052;2024-03-08T17:25:25;30.27;;;12.23;;
65996;SDS011;52765;52.258;21.052;2024-03-08T17:29:26;30.50;;;11.07;;
65996;SDS011;52765;52.258;21.052;2024-03-08T17:33:26;75.25;;;33.53;;
65996;SDS011;52765;52.258;21.052;2024-03-08T17:41:35;47.00;;;16.00;;
65996;SDS011;52765;52.258;21.052;2024-03-08T17:45:37;37.97;;;15.93;;
65996;SDS011;52765;52.258;21.052;2024-03-08T17:49:40;42.67;;;16.85;;
65996;SDS011;52765;52.258;21.052;2024-03-08T17:53:42;42.78;;;16.85;;
65996;SDS011;52765;52.258;21.052;2024-03-08T17:57:50;48.35;;;16.70;;
65996;SDS011;52765;52.258;21.052;2024-03-08T18:01:52;45.65;;;17.80;;
65996;SDS011;52765;52.258;21.052;2024-03-08T18:05:55;39.92;;;16.48;;
65996;SDS011;52765;52.258;21.052;2024-03-08T18:09:55;41.70;;;19.00;;
65996;SDS011;52765;52.258;21.052;2024-03-08T18:13:56;56.45;;;21.50;;
65996;SDS011;52765;52.258;21.052;2024-03-08T18:17:57;56.45;;;21.02;;
65996;SDS011;52765;52.258;21.052;2024-03-08T18:21:59;50.78;;;20.17;;
65996;SDS011;52765;52.258;21.052;2024-03-08T18:26:00;56.58;;;20.58;;
65996;SDS011;52765;52.258;21.052;2024-03-08T18:30:01;50.67;;;20.52;;
65996;SDS011;52765;52.258;21.052;2024-03-08T18:34:04;46.03;;;19.88;;
65996;SDS011;52765;52.258;21.052;2024-03-08T18:38:06;51.97;;;19.95;;
65996;SDS011;52765;52.258;21.052;2024-03-08T18:42:10;59.65;;;21.70;;
65996;SDS011;52765;52.258;21.052;2024-03-08T18:46:12;55.58;;;22.52;;
65996;SDS011;52765;52.258;21.052;2024-03-08T18:50:12;58.95;;;21.20;;
65996;SDS011;52765;52.258;21.052;2024-03-08T18:54:13;55.25;;;23.35;;
65996;SDS011;52765;52.258;21.052;2024-03-08T18:58:15;59.22;;;23.30;;
65996;SDS011;52765;52.258;21.052;2024-03-08T19:02:17;59.30;;;23.33;;
65996;SDS011;52765;52.258;21.052;2024-03-08T19:06:17;61.25;;;22.83;;
65996;SDS011;52765;52.258;21.052;2024-03-08T19:10:19;59.08;;;22.23;;
65996;SDS011;52765;52.258;21.052;2024-03-08T19:14:24;64.60;;;22.02;;
65996;SDS011;52765;52.258;21.052;2024-03-08T19:18:25;65.95;;;21.58;;
65996;SDS011;52765;52.258;21.052;2024-03-08T19:22:29;70.03;;;24.30;;
65996;SDS011;52765;52.258;21.052;2024-03-08T19:26:30;68.93;;;23.10;;
65996;SDS011;52765;52.258;21.052;2024-03-08T19:30:30;55.25;;;21.85;;
65996;SDS011;52765;52.258;21.052;2024-03-08T19:34:32;66.95;;;24.20;;
65996;SDS011;52765;52.258;21.052;2024-03-08T19:38:32;66.10;;;24.60;;
65996;SDS011;52765;52.258;21.052;2024-03-08T19:42:34;63.03;;;23.98;;
65996;SDS011;52765;52.258;21.052;2024-03-08T19:46:35;55.63;;;23.15;;
65996;SDS011;52765;52.258;21.052;2024-03-08T19:50:41;57.42;;;23.75;;
65996;SDS011;52765;52.258;21.052;2024-03-08T19:54:43;67.53;;;24.83;;
65996;SDS011;52765;52.258;21.052;2024-03-08T19:58:43;69.47;;;24.20;;
65996;SDS011;52765;52.258;21.052;2024-03-08T20:02:45;61.85;;;23.60;;
65996;SDS011;52765;52.258;21.052;2024-03-08T20:06:47;70.57;;;24.27;;
65996;SDS011;52765;52.258;21.052;2024-03-08T20:10:50;72.70;;;24.70;;
65996;SDS011;52765;52.258;21.052;2024-03-08T20:14:55;72.72;;;25.75;;
65996;SDS011;52765;52.258;21.052;2024-03-08T20:18:56;68.70;;;25.92;;
65996;SDS011;52765;52.258;21.052;2024-03-08T20:23:02;70.70;;;25.95;;
65996;SDS011;52765;52.258;21.052;2024-03-08T20:27:03;68.43;;;26.42;;
65996;SDS011;52765;52.258;21.052;2024-03-08T20:31:07;68.38;;;27.05;;
65996;SDS011;52765;52.258;21.052;2024-03-08T20:35:08;76.15;;;27.63;;
65996;SDS011;52765;52.258;21.052;2024-03-08T20:39:10;90.30;;;28.63;;
65996;SDS011;52765;52.258;21.052;2024-03-08T20:43:11;84.20;;;26.92;;
65996;SDS011;52765;52.258;21.052;2024-03-08T20:47:14;69.38;;;27.30;;
65996;SDS011;52765;52.258;21.052;2024-03-08T20:51:22;75.32;;;27.77;;
65996;SDS011;52765;52.258;21.052;2024-03-08T20:55:24;79.38;;;26.33;;
65996;SDS011;52765;52.258;21.052;2024-03-08T20:59:27;69.07;;;26.70;;
65996;SDS011;52765;52.258;21.052;2024-03-08T21:03:28;75.32;;;28.02;;
65996;SDS011;52765;52.258;21.052;2024-03-08T21:07:28;65.22;;;25.30;;
65996;SDS011;52765;52.258;21.052;2024-03-08T21:11:31;66.70;;;25.98;;
65996;SDS011;52765;52.258;21.052;2024-03-08T21:15:33;80.45;;;26.85;;
65996;SDS011;52765;52.258;21.052;2024-03-08T21:19:33;75.45;;;26.85;;
65996;SDS011;52765;52.258;21.052;2024-03-08T21:23:39;79.97;;;26.67;;
65996;SDS011;52765;52.258;21.052;2024-03-08T21:27:44;80.93;;;27.65;;
65996;SDS011;52765;52.258;21.052;2024-03-08T21:31:45;78.32;;;27.83;;
65996;SDS011;52765;52.258;21.052;2024-03-08T21:35:46;84.95;;;27.23;;
65996;SDS011;52765;52.258;21.052;2024-03-08T21:39:46;70.43;;;26.13;;
65996;SDS011;52765;52.258;21.052;2024-03-08T21:43:47;56.78;;;24.33;;
65996;SDS011;52765;52.258;21.052;2024-03-08T21:47:50;75.35;;;24.95;;
65996;SDS011;52765;52.258;21.052;2024-03-08T21:51:50;71.57;;;23.83;;
65996;SDS011;52765;52.258;21.052;2024-03-08T21:55:51;67.22;;;21.77;;
65996;SDS011;52765;52.258;21.052;2024-03-08T21:59:51;61.55;;;23.20;;
65996;SDS011;52765;52.258;21.052;2024-03-08T22:03:53;76.47;;;21.27;;
65996;SDS011;52765;52.258;21.052;2024-03-08T22:07:54;49.58;;;21.17;;
65996;SDS011;52765;52.258;21.052;2024-03-08T22:11:55;63.30;;;23.63;;
65996;SDS011;52765;52.258;21.052;2024-03-08T22:16:15;56.08;;;20.40;;
65996;SDS011;52765;52.258;21.052;2024-03-08T22:20:16;54.13;;;21.33;;
65996;SDS011;52765;52.258;21.052;2024-03-08T22:24:31;58.83;;;20.42;;
65996;SDS011;52765;52.258;21.052;2024-03-08T22:28:31;58.17;;;20.88;;
65996;SDS011;52765;52.258;21.052;2024-03-08T22:32:32;64.25;;;21.38;;
65996;SDS011;52765;52.258;21.052;2024-03-08T22:36:32;73.50;;;24.10;;
65996;SDS011;52765;52.258;21.052;2024-03-08T22:40:35;60.13;;;21.83;;
65996;SDS011;52765;52.258;21.052;2024-03-08T22:44:36;56.22;;;21.83;;
65996;SDS011;52765;52.258;21.052;2024-03-08T22:48:38;64.47;;;23.05;;
65996;SDS011;52765;52.258;21.052;2024-03-08T22:52:41;66.40;;;22.52;;
65996;SDS011;52765;52.258;21.052;2024-03-08T22:56:46;58.80;;;22.42;;
65996;SDS011;52765;52.258;21.052;2024-03-08T23:00:46;58.47;;;21.45;;
65996;SDS011;52765;52.258;21.052;2024-03-08T23:04:57;60.38;;;22.50;;
65996;SDS011;52765;52.258;21.052;2024-03-08T23:08:57;61.63;;;22.98;;
65996;SDS011;52765;52.258;21.052;2024-03-08T23:12:58;68.15;;;23.80;;
65996;SDS011;52765;52.258;21.052;2024-03-08T23:16:58;64.70;;;23.00;;
65996;SDS011;52765;52.258;21.052;2024-03-08T23:21:00;69.05;;;25.38;;
65996;SDS011;52765;52.258;21.052;2024-03-08T23:25:00;69.50;;;24.52;;
65996;SDS011;52765;52.258;21.052;2024-03-08T23:29:03;87.15;;;25.90;;